Time;durP1;ratioP1;P1;durP2;ratioP2;P2;SDS_P1;SDS_P2;PMS_P1;PMS_P2;Temp;Humidity;BMP_temperature;BMP_pressure;BME280_temperature;BME280_humidity;BME280_pressure;Samples;Min_cycle;Max_cycle;Signal;HPM_P1;HPM_P2
2021/06/09 00:00:44;;;;;;;9.93;5.00;;;;;;;16.10;75.69;99036.61;1759190;81;21054;-87
2021/06/09 00:03:12;;;;;;;10.30;4.95;;;;;;;16.12;77.73;99033.08;1758941;82;21091;-87
2021/06/09 00:05:39;;;;;;;8.23;5.10;;;;;;;16.13;75.39;99030.83;1759178;80;21051;-87
2021/06/09 00:08:06;;;;;;;9.43;5.17;;;;;;;16.14;74.27;99031.23;1758997;82;21047;-87
2021/06/09 00:10:34;;;;;;;11.38;5.83;;;;;;;16.17;74.42;99032.37;1759081;81;21039;-86
2021/06/09 00:13:01;;;;;;;10.05;6.10;;;;;;;16.16;74.10;99033.31;1773521;80;21047;-87
2021/06/09 00:15:28;;;;;;;10.50;5.60;;;;;;;16.16;75.89;99025.45;1788414;77;21037;-87
2021/06/09 00:17:55;;;;;;;9.35;6.05;;;;;;;16.15;74.77;99026.36;1727344;78;21127;-90
2021/06/09 00:20:25;;;;;;;14.98;5.60;;;;;;;15.90;74.26;98990.85;1697396;83;21055;-91
2021/06/09 00:22:54;;;;;;;15.53;5.80;;;;;;;16.12;76.36;99019.50;1690280;81;21980;-90
2021/06/09 00:25:23;;;;;;;9.55;5.95;;;;;;;16.13;74.73;99023.80;1708888;83;21060;-87
2021/06/09 00:27:56;;;;;;;11.83;5.90;;;;;;;16.13;75.48;99019.03;1742894;79;21143;-90
2021/06/09 00:30:32;;;;;;;13.10;5.90;;;;;;;16.10;75.31;99016.94;1730641;82;21047;-87
2021/06/09 00:33:01;;;;;;;12.93;5.92;;;;;;;16.05;75.35;99009.75;1730802;83;20956;-87
2021/06/09 00:35:29;;;;;;;10.15;5.50;;;;;;;15.97;78.27;99017.14;1730717;82;21071;-87
2021/06/09 00:37:56;;;;;;;13.22;6.17;;;;;;;15.96;76.61;99022.02;1730936;83;20984;-85
2021/06/09 00:40:24;;;;;;;8.65;5.78;;;;;;;15.94;77.19;99013.38;1684418;85;21067;-86
2021/06/09 00:43:16;;;;;;;9.60;6.37;;;;;;;15.93;76.60;99003.80;1696957;83;21004;-87
2021/06/09 00:45:54;;;;;;;10.75;6.90;;;;;;;15.91;76.05;99003.86;1658417;86;21167;-87
2021/06/09 00:48:25;;;;;;;10.18;6.30;;;;;;;15.87;76.38;99008.03;1657706;86;21146;-87
2021/06/09 00:50:50;;;;;;;11.35;6.92;;;;;;;15.81;76.64;99011.78;1658519;85;20997;-87
2021/06/09 00:53:34;;;;;;;12.35;6.83;;;;;;;15.77;78.59;99004.16;1659392;87;21061;-87
2021/06/09 00:56:06;;;;;;;13.40;6.62;;;;;;;15.74;79.47;99007.78;1659686;86;21238;-87
2021/06/09 00:58:34;;;;;;;15.60;6.85;;;;;;;15.70;77.22;99008.34;1659613;87;21714;-87
2021/06/09 01:01:02;;;;;;;15.55;7.08;;;;;;;15.68;77.31;99009.35;1659308;87;21051;-87
2021/06/09 01:03:29;;;;;;;10.78;6.80;;;;;;;15.64;78.09;99009.11;1659675;85;21076;-86
2021/06/09 01:05:56;;;;;;;9.80;6.95;;;;;;;15.53;79.79;99015.30;1680060;85;20995;-87
2021/06/09 01:08:23;;;;;;;10.88;6.85;;;;;;;15.41;79.64;99020.65;1679931;85;21051;-87
2021/06/09 01:10:53;;;;;;;18.50;7.78;;;;;;;15.38;78.68;99018.16;1680205;82;21043;-87
2021/06/09 01:13:23;;;;;;;27.32;7.12;;;;;;;15.35;79.89;99019.63;1680167;85;21039;-87
2021/06/09 01:15:51;;;;;;;12.33;6.53;;;;;;;15.31;80.57;99017.13;1680053;85;21043;-87
2021/06/09 01:18:19;;;;;;;13.40;7.20;;;;;;;15.30;80.44;99020.69;1680090;85;21074;-87
2021/06/09 01:20:48;;;;;;;11.65;6.40;;;;;;;15.28;77.97;99021.22;1664658;85;21008;-87
2021/06/09 01:23:15;;;;;;;12.07;6.85;;;;;;;15.29;79.30;99016.35;1658467;85;21071;-87
2021/06/09 01:25:45;;;;;;;12.30;6.72;;;;;;;15.33;80.36;99016.23;1693677;85;21089;-86
2021/06/09 01:28:12;;;;;;;10.60;7.05;;;;;;;15.33;80.55;99017.53;1667876;86;21084;-87
2021/06/09 01:30:40;;;;;;;12.13;6.37;;;;;;;15.36;78.74;99018.69;1668292;86;21056;-86
2021/06/09 01:33:08;;;;;;;12.60;7.10;;;;;;;15.38;78.24;99016.41;1698262;84;21023;-87
2021/06/09 01:35:35;;;;;;;19.90;6.80;;;;;;;15.42;78.25;99017.97;1704537;84;21112;-87
2021/06/09 01:38:05;;;;;;;36.77;7.33;;;;;;;15.45;78.32;99018.28;1704486;84;21066;-87
2021/06/09 01:40:32;;;;;;;19.85;7.30;;;;;;;15.44;80.43;99019.21;1704246;84;21008;-86
2021/06/09 01:43:02;;;;;;;14.78;6.87;;;;;;;15.38;79.61;99012.48;1726065;83;21026;-87
2021/06/09 01:45:32;;;;;;;14.68;7.15;;;;;;;15.39;80.07;99018.56;1733867;83;21577;-87
2021/06/09 01:48:00;;;;;;;23.05;7.37;;;;;;;15.38;79.02;99021.65;1733842;83;21065;-87
2021/06/09 01:50:28;;;;;;;18.62;6.78;;;;;;;15.37;79.50;99019.94;1668668;85;21060;-86
2021/06/09 01:52:56;;;;;;;15.85;7.62;;;;;;;15.37;78.37;99021.71;1713937;83;21036;-87
2021/06/09 01:55:26;;;;;;;19.95;7.37;;;;;;;15.30;78.45;99027.23;1699650;84;21091;-87
2021/06/09 01:57:53;;;;;;;14.78;6.85;;;;;;;15.23;79.18;99020.56;1663391;86;21073;-87
2021/06/09 02:00:27;;;;;;;16.25;7.17;;;;;;;15.22;80.04;99011.02;1663486;86;21341;-87
2021/06/09 02:03:00;;;;;;;12.60;7.22;;;;;;;15.19;78.59;99009.00;1699226;85;21091;-87
2021/06/09 02:05:34;;;;;;;11.95;6.92;;;;;;;15.16;77.18;99006.06;1663447;86;21014;-87
2021/06/09 02:08:07;;;;;;;11.93;6.83;;;;;;;15.14;77.53;99011.83;1663583;86;21066;-87
2021/06/09 02:10:36;;;;;;;15.70;7.28;;;;;;;15.13;80.45;99018.44;1699831;85;21039;-87
2021/06/09 02:13:11;;;;;;;11.15;6.62;;;;;;;15.11;79.72;99017.19;1663285;86;21136;-87
2021/06/09 02:15:39;;;;;;;12.85;7.03;;;;;;;15.06;81.30;99019.16;1700148;84;21051;-87
2021/06/09 02:18:10;;;;;;;13.03;7.17;;;;;;;15.02;79.08;99009.73;1704366;84;21042;-88
2021/06/09 02:20:46;;;;;;;10.65;6.53;;;;;;;14.98;78.07;99013.41;1704353;84;21085;-87
2021/06/09 02:23:20;;;;;;;10.60;6.83;;;;;;;14.95;79.01;99015.72;1704445;84;21079;-87
2021/06/09 02:25:52;;;;;;;12.78;6.78;;;;;;;14.94;79.95;99017.09;1704119;84;21372;-87
2021/06/09 02:28:21;;;;;;;10.60;6.40;;;;;;;14.95;79.12;99015.72;1702415;84;21068;-84
2021/06/09 02:30:49;;;;;;;13.98;7.03;;;;;;;14.95;79.36;99020.11;1684249;84;21070;-86
2021/06/09 02:33:22;;;;;;;10.28;6.60;;;;;;;14.96;80.83;99012.20;1695034;84;21019;-86
2021/06/09 02:35:50;;;;;;;;;;;;;;;15.00;80.49;99022.05;1668196;86;21079;-86
2021/06/09 02:38:19;;;;;;;15.15;7.60;;;;;;;15.02;81.47;99017.59;1665938;86;20161;-86
2021/06/09 02:40:52;;;;;;;11.28;6.25;;;;;;;14.99;81.18;99015.97;1665651;86;21090;-86
2021/06/09 02:43:20;;;;;;;;;;;;;;;14.99;79.86;99016.44;1674885;84;21023;-87
2021/06/09 02:45:51;;;;;;;14.50;6.15;;;;;;;14.99;80.85;99025.13;1716574;84;20113;-86
2021/06/09 02:48:22;;;;;;;9.68;6.30;;;;;;;14.98;80.62;99034.36;1703868;84;21104;-86
2021/06/09 02:50:49;;;;;;;13.08;7.08;;;;;;;14.96;81.83;99030.52;1701973;84;21064;-86
2021/06/09 02:53:36;;;;;;;13.38;7.00;;;;;;;14.96;80.84;99021.80;1701645;84;21059;-85
2021/06/09 02:56:26;;;;;;;13.65;7.80;;;;;;;14.95;81.48;99024.87;1701793;84;21100;-87
2021/06/09 02:59:19;;;;;;;13.75;6.85;;;;;;;14.92;80.81;99022.38;1702036;83;21051;-86
2021/06/09 03:02:10;;;;;;;14.93;7.45;;;;;;;14.84;82.06;99028.41;1608960;88;21171;-86
2021/06/09 03:05:18;;;;;;;13.20;7.47;;;;;;;14.77;80.90;99025.69;1641860;84;21118;-92
2021/06/09 03:08:17;;;;;;;21.15;6.97;;;;;;;14.74;80.53;99031.05;1684397;85;21101;-86
2021/06/09 03:11:12;;;;;;;16.42;6.17;;;;;;;14.67;80.97;99035.23;1683960;85;21026;-86
2021/06/09 03:17:13;;;;;;;13.75;6.50;;;;;;;14.49;81.55;99040.76;1697328;85;21046;-86
2021/06/09 03:20:18;;;;;;;14.40;6.42;;;;;;;14.46;81.04;99046.13;1697567;85;21114;-88
2021/06/09 03:22:56;;;;;;;10.63;6.35;;;;;;;14.45;80.75;99050.95;1668290;86;21220;-86
2021/06/09 03:25:35;;;;;;;10.55;5.92;;;;;;;14.37;81.78;99041.73;1668465;85;21042;-86
2021/06/09 03:28:25;;;;;;;13.25;5.33;;;;;;;14.37;83.22;99044.36;1621932;88;21088;-87
2021/06/09 03:31:04;;;;;;;12.23;5.97;;;;;;;14.40;82.59;99045.05;1657136;86;21059;-87
2021/06/09 03:33:40;;;;;;;12.90;6.47;;;;;;;14.47;81.29;99034.74;1618527;83;21130;-83
2021/06/09 03:36:28;;;;;;;15.90;6.03;;;;;;;14.56;82.04;99037.88;1654008;86;21358;-85
2021/06/09 03:39:04;;;;;;;15.63;6.47;;;;;;;14.63;81.28;99032.36;1642408;83;21087;-91
2021/06/09 03:41:41;;;;;;;10.78;5.67;;;;;;;14.68;80.67;99031.72;1703549;80;21092;-90
2021/06/09 03:44:11;;;;;;;10.48;6.05;;;;;;;14.71;80.26;99033.34;1724730;81;21129;-88
2021/06/09 03:46:40;;;;;;;11.63;5.45;;;;;;;14.76;82.94;99030.52;1709667;80;21147;-91
2021/06/09 03:49:16;;;;;;;15.70;6.17;;;;;;;14.81;82.08;99033.33;1709736;84;21047;-87
2021/06/09 03:55:15;;;;;;;8.43;5.78;;;;;;;14.96;81.16;99041.42;1710462;82;21024;-87
2021/06/09 03:57:43;;;;;;;15.60;6.58;;;;;;;14.99;81.06;99037.38;1699102;81;21095;-91
2021/06/09 04:00:11;;;;;;;16.27;6.05;;;;;;;15.02;80.13;99036.80;1647420;84;21137;-88
2021/06/09 04:02:41;;;;;;;25.25;7.00;;;;;;;15.08;79.23;99038.27;1647320;84;21152;-88
2021/06/09 04:05:10;;;;;;;15.23;6.58;;;;;;;15.06;79.16;99038.79;1646888;84;21034;-87
2021/06/09 04:07:38;;;;;;;14.15;6.85;;;;;;;14.97;81.55;99020.89;1646667;87;21050;-87
2021/06/09 04:10:09;;;;;;;10.98;6.10;;;;;;;15.06;81.74;99042.72;1646965;87;21151;-87
2021/06/09 04:12:37;;;;;;;20.75;6.60;;;;;;;15.06;81.16;99039.66;1647037;87;21129;-87
2021/06/09 04:15:09;;;;;;;12.93;6.70;;;;;;;15.11;80.76;99038.14;1647058;87;21154;-87
2021/06/09 04:17:39;;;;;;;10.75;5.80;;;;;;;15.14;81.33;99039.77;1646473;87;21167;-87
2021/06/09 04:20:09;;;;;;;14.78;6.08;;;;;;;15.16;80.45;99039.23;1647058;87;21107;-87
2021/06/09 04:22:37;;;;;;;9.28;5.97;;;;;;;15.18;81.40;99046.13;1632527;87;21094;-87
2021/06/09 04:25:07;;;;;;;13.28;6.62;;;;;;;15.27;80.29;99042.23;1620991;86;21066;-87
2021/06/09 04:27:39;;;;;;;11.35;6.60;;;;;;;15.34;80.49;99045.41;1620842;89;21161;-87
2021/06/09 04:30:07;;;;;;;11.97;6.37;;;;;;;15.42;80.45;99043.29;1620801;89;21113;-86
2021/06/09 04:32:55;;;;;;;11.63;6.22;;;;;;;15.49;80.29;99038.17;1620712;89;21062;-87
2021/06/09 04:35:29;;;;;;;21.15;7.25;;;;;;;15.54;80.69;99044.06;1630113;87;21054;-87
2021/06/09 04:37:55;;;;;;;;;;;;;;;15.65;80.04;99049.63;1649210;85;21074;-88
2021/06/09 04:40:28;;;;;;;9.55;6.62;;;;;;;15.58;79.07;99019.84;1599729;86;20096;-87
2021/06/09 04:42:59;;;;;;;15.93;7.70;;;;;;;15.81;79.11;99052.41;1619695;89;21087;-88
2021/06/09 04:45:30;;;;;;;14.93;7.62;;;;;;;15.85;79.13;99040.86;1619387;89;21148;-88
2021/06/09 04:47:57;;;;;;;19.45;8.35;;;;;;;15.88;79.41;99038.11;1619360;87;21100;-87
2021/06/09 04:50:27;;;;;;;16.20;9.20;;;;;;;15.89;80.33;99045.03;1619342;89;21081;-87
2021/06/09 04:53:10;;;;;;;20.50;8.60;;;;;;;15.98;78.83;99039.83;1618963;87;21216;-87
2021/06/09 04:55:24;;;;;;;11.33;6.90;;;;;;;16.05;79.08;99048.23;1616507;89;21096;-87
2021/06/09 04:57:51;;;;;;;15.78;8.30;;;;;;;16.12;79.24;99044.88;1622657;87;21065;-86
2021/06/09 05:00:20;;;;;;;17.17;7.03;;;;;;;16.13;78.82;99046.56;1647350;87;21131;-89
2021/06/09 05:02:47;;;;;;;13.50;8.43;;;;;;;16.16;78.56;99043.80;1647316;84;21095;-88
2021/06/09 05:05:15;;;;;;;11.20;7.08;;;;;;;16.22;78.26;99047.44;1647645;87;21028;-89
2021/06/09 05:07:42;;;;;;;11.53;7.35;;;;;;;16.31;77.87;99043.03;1647619;82;21028;-90
2021/06/09 05:10:10;;;;;;;14.38;6.42;;;;;;;16.35;78.18;99047.20;1647594;82;21107;-88
2021/06/09 05:12:56;;;;;;;15.60;6.42;;;;;;;16.41;77.86;99044.73;1687994;85;21086;-89
2021/06/09 05:15:30;;;;;;;14.33;6.25;;;;;;;16.47;77.85;99047.05;1672121;86;21095;-88
2021/06/09 05:18:20;;;;;;;15.85;7.00;;;;;;;16.58;77.66;99055.25;1646691;86;21066;-89
2021/06/09 05:20:53;;;;;;;12.95;6.80;;;;;;;16.67;77.33;99048.23;1645720;86;21256;-89
2021/06/09 05:23:32;;;;;;;14.65;7.15;;;;;;;16.77;76.95;99049.05;1645665;86;21149;-88
2021/06/09 05:26:06;;;;;;;11.55;6.20;;;;;;;16.84;76.68;99053.95;1676382;86;21135;-89
2021/06/09 05:29:04;;;;;;;14.35;6.70;;;;;;;16.89;76.91;99048.01;1605009;86;21043;-89
2021/06/09 05:31:35;;;;;;;25.52;9.00;;;;;;;16.95;77.27;99045.53;1676095;86;21353;-89
2021/06/09 05:34:14;;;;;;;17.48;7.45;;;;;;;17.03;76.05;99044.66;1676451;83;21057;-88
2021/06/09 05:36:46;;;;;;;14.87;6.17;;;;;;;17.05;75.56;99044.56;1647309;84;21181;-80
2021/06/09 05:39:19;;;;;;;11.55;6.45;;;;;;;17.12;75.78;99046.42;1675445;85;21037;-83
2021/06/09 05:41:46;;;;;;;14.00;6.37;;;;;;;17.17;76.04;99037.81;1662326;85;21043;-86
2021/06/09 05:44:17;;;;;;;12.20;5.80;;;;;;;17.31;75.73;99040.58;1651701;86;21015;-85
2021/06/09 05:46:45;;;;;;;13.38;6.90;;;;;;;17.38;75.77;99035.83;1667967;86;21272;-86
2021/06/09 05:49:23;;;;;;;12.85;6.83;;;;;;;17.49;75.08;99038.73;1676195;86;21016;-87
2021/06/09 05:51:53;;;;;;;15.35;6.25;;;;;;;17.55;74.67;99037.08;1661047;85;21281;-88
2021/06/09 05:54:26;;;;;;;15.63;6.97;;;;;;;17.68;74.26;99038.56;1664542;85;20988;-87
2021/06/09 05:57:01;;;;;;;13.70;6.97;;;;;;;17.78;73.74;99039.73;1692897;84;21052;-89
2021/06/09 06:03:30;;;;;;;10.82;5.67;;;;;;;18.03;72.81;99036.62;1692944;83;21024;-90
2021/06/09 06:09:11;;;;;;;12.00;5.67;;;;;;;18.18;71.50;99034.89;1695843;80;21186;-84
2021/06/09 06:11:39;;;;;;;10.35;5.90;;;;;;;18.25;70.91;99034.09;1662948;86;21137;-87
2021/06/09 06:14:11;;;;;;;12.30;5.28;;;;;;;18.31;71.38;99035.53;1654254;83;21079;-87
2021/06/09 06:16:58;;;;;;;10.03;5.28;;;;;;;18.40;70.37;99034.53;1650914;86;21059;-87
2021/06/09 06:19:37;;;;;;;13.30;5.67;;;;;;;18.55;70.68;99034.56;1638766;86;21059;-87
2021/06/09 06:22:11;;;;;;;9.78;5.58;;;;;;;18.67;69.65;99034.67;1689125;84;21062;-86
2021/06/09 06:24:44;;;;;;;11.78;6.05;;;;;;;18.75;69.48;99035.53;1670588;84;21074;-87
2021/06/09 06:27:15;;;;;;;7.70;5.05;;;;;;;18.81;69.33;99032.56;1651561;86;21224;-84
2021/06/09 06:29:46;;;;;;;17.05;6.92;;;;;;;18.92;69.23;99033.70;1662431;86;21003;-86
2021/06/09 06:32:16;;;;;;;13.95;6.17;;;;;;;18.94;68.71;99030.05;1661612;86;21197;-87
2021/06/09 06:34:50;;;;;;;9.95;5.50;;;;;;;19.02;68.37;99030.43;1659336;85;21082;-88
2021/06/09 06:40:13;;;;;;;11.30;5.83;;;;;;;19.16;66.28;99037.50;1693822;81;21096;-88
2021/06/09 06:42:40;;;;;;;14.55;5.28;;;;;;;19.28;66.51;99039.84;1666932;84;21079;-89
2021/06/09 06:45:10;;;;;;;16.02;5.67;;;;;;;19.35;66.14;99035.03;1664451;85;21391;-91
2021/06/09 06:47:37;;;;;;;10.90;5.20;;;;;;;19.40;65.25;99032.49;1663176;85;21160;-91
2021/06/09 06:50:04;;;;;;;13.78;5.42;;;;;;;19.47;65.30;99030.30;1654182;86;21639;-88
2021/06/09 06:52:32;;;;;;;12.43;5.60;;;;;;;19.52;65.24;99024.28;1672604;85;20984;-91
2021/06/09 06:55:01;;;;;;;8.23;5.35;;;;;;;19.59;64.88;99028.69;1674121;85;21016;-88
2021/06/09 06:57:32;;;;;;;10.50;4.85;;;;;;;19.63;64.68;99029.70;1679707;85;21051;-88
2021/06/09 07:00:04;;;;;;;8.33;4.83;;;;;;;19.78;64.67;99028.41;1670682;84;21067;-90
2021/06/09 07:02:33;;;;;;;9.93;5.62;;;;;;;19.84;64.20;99021.42;1658097;85;21071;-86
2021/06/09 07:05:03;;;;;;;15.13;5.40;;;;;;;19.96;64.10;99024.58;1677246;85;21041;-87
2021/06/09 07:07:33;;;;;;;11.45;5.00;;;;;;;20.08;63.08;99023.42;1645538;84;21050;-87
2021/06/09 07:10:06;;;;;;;12.03;4.95;;;;;;;20.17;61.85;99018.35;1648119;86;22191;-89
2021/06/09 07:12:36;;;;;;;8.60;4.60;;;;;;;20.26;62.89;99019.56;1660570;85;21074;-89
2021/06/09 07:18:12;;;;;;;9.33;5.05;;;;;;;20.42;61.91;99010.14;1716706;80;21219;-88
2021/06/09 07:29:57;;;;;;;10.82;6.12;;;;;;;21.24;61.98;99009.39;1706753;79;21118;-91
2021/06/09 07:32:54;;;;;;;13.62;7.60;;;;;;;21.42;58.68;99017.33;1703548;81;21146;-87
2021/06/09 07:35:21;;;;;;;14.07;6.83;;;;;;;21.53;59.08;99015.30;1717919;83;20983;-87
2021/06/09 07:40:43;;;;;;;10.38;6.10;;;;;;;21.72;59.30;99014.80;1749030;79;21074;-88
2021/06/09 07:43:15;;;;;;;13.68;5.67;;;;;;;21.85;56.93;99008.15;1764171;80;21117;-87
2021/06/09 07:45:43;;;;;;;8.93;5.05;;;;;;;21.89;58.15;99009.61;1748858;81;20971;-88
2021/06/09 07:48:12;;;;;;;13.55;6.42;;;;;;;21.99;55.55;99015.91;1733243;82;21107;-88
2021/06/09 07:50:50;;;;;;;12.85;7.22;;;;;;;22.09;58.21;99011.28;1740987;81;22231;-88
2021/06/09 07:53:19;;;;;;;13.35;7.28;;;;;;;22.21;57.62;99013.01;1710503;82;21120;-89
2021/06/09 07:55:49;;;;;;;12.65;6.00;;;;;;;22.34;57.18;99015.60;1718357;83;21130;-89
2021/06/09 07:58:28;;;;;;;11.30;5.58;;;;;;;22.42;55.51;99014.09;1752489;82;21050;-88
2021/06/09 08:00:57;;;;;;;11.05;5.42;;;;;;;22.55;56.28;99007.86;1738436;79;21035;-88
2021/06/09 08:03:27;;;;;;;11.57;6.00;;;;;;;22.74;56.10;99012.58;1747201;82;21084;-88
2021/06/09 08:06:01;;;;;;;12.00;5.00;;;;;;;22.90;55.13;99004.28;1750544;79;21149;-90
2021/06/09 08:08:25;;;;;;;8.15;5.22;;;;;;;22.97;53.65;99012.14;1757004;81;21079;-87
2021/06/09 08:10:52;;;;;;;7.35;4.37;;;;;;;23.11;54.29;99007.95;1756956;81;20999;-90
2021/06/09 08:13:19;;;;;;;4.90;2.80;;;;;;;23.27;49.63;99001.45;1765492;81;21256;-91
2021/06/09 08:15:47;;;;;;;9.05;3.35;;;;;;;23.37;51.39;99001.08;1743154;78;21153;-90
2021/06/09 08:21:16;;;;;;;6.47;3.87;;;;;;;23.57;51.08;98998.15;1746031;82;21071;-88
2021/06/09 08:23:48;;;;;;;13.25;5.80;;;;;;;23.71;51.67;98991.23;1724973;81;21078;-89
2021/06/09 08:26:20;;;;;;;12.00;4.00;;;;;;;23.80;48.90;98989.70;1744135;82;20999;-89
2021/06/09 08:28:47;;;;;;;11.63;4.80;;;;;;;23.85;50.99;98990.14;1735604;82;21051;-90
2021/06/09 08:31:21;;;;;;;8.68;4.95;;;;;;;23.94;50.07;98991.22;1733915;82;21065;-91
2021/06/09 08:33:50;;;;;;;8.40;4.15;;;;;;;23.98;50.01;98996.14;1713505;82;21127;-90
2021/06/09 08:36:18;;;;;;;7.70;3.15;;;;;;;24.07;49.08;98997.68;1718542;80;21122;-91
2021/06/09 08:38:49;;;;;;;4.70;3.00;;;;;;;24.11;45.89;99001.77;1695297;79;21202;-91
2021/06/09 08:41:18;;;;;;;4.90;2.70;;;;;;;24.18;45.95;99001.13;1679215;85;21084;-91
2021/06/09 08:43:47;;;;;;;5.87;3.62;;;;;;;24.18;44.43;98998.97;1676663;83;21067;-90
2021/06/09 08:46:16;;;;;;;7.47;3.45;;;;;;;24.29;44.58;99004.24;1669117;83;21051;-89
2021/06/09 08:48:45;;;;;;;8.95;5.90;;;;;;;24.40;45.01;98998.85;1671749;85;21047;-89
2021/06/09 08:51:17;;;;;;;11.93;4.25;;;;;;;24.51;45.32;98991.81;1676293;84;21124;-89
2021/06/09 08:53:52;;;;;;;8.53;4.50;;;;;;;24.62;44.54;98998.41;1673674;85;21047;-88
2021/06/09 08:56:26;;;;;;;5.40;3.25;;;;;;;24.74;45.17;98998.69;1673244;82;21135;-89
2021/06/09 08:58:58;;;;;;;8.50;3.25;;;;;;;24.89;44.03;98996.55;1673389;84;20983;-90
2021/06/09 09:01:34;;;;;;;5.40;3.33;;;;;;;24.97;45.59;98995.88;1660392;86;21085;-90
2021/06/09 09:04:07;;;;;;;8.48;3.10;;;;;;;25.12;45.22;98989.21;1650946;85;21016;-90
2021/06/09 09:06:40;;;;;;;4.65;2.87;;;;;;;25.20;44.64;98988.55;1700409;84;21103;-89
2021/06/09 09:09:07;;;;;;;6.25;3.02;;;;;;;25.41;45.50;98984.53;1646638;85;21054;-90
2021/06/09 09:11:39;;;;;;;5.70;3.17;;;;;;;25.60;45.00;98988.58;1650570;85;21099;-90
2021/06/09 09:14:15;;;;;;;7.62;3.42;;;;;;;25.66;44.37;98979.67;1650258;84;21281;-91
2021/06/09 09:17:11;;;;;;;5.28;3.10;;;;;;;25.63;42.15;98978.14;1651255;86;21263;-91
2021/06/09 09:19:48;;;;;;;11.53;3.90;;;;;;;25.76;43.84;98977.86;1686488;84;21162;-87
2021/06/09 09:22:34;;;;;;;8.88;4.53;;;;;;;25.89;43.73;98977.61;1677522;85;21063;-90
2021/06/09 09:25:12;;;;;;;5.08;2.85;;;;;;;26.01;43.84;98975.19;1671183;84;20982;-89
2021/06/09 09:27:40;;;;;;;8.05;3.60;;;;;;;26.04;39.02;98973.56;1661356;86;21058;-89
2021/06/09 09:30:26;;;;;;;6.05;3.33;;;;;;;26.08;40.72;98971.47;1651203;84;21028;-91
2021/06/09 09:33:11;;;;;;;5.55;3.02;;;;;;;26.15;41.84;98968.10;1684118;80;21027;-89
2021/06/09 09:35:42;;;;;;;5.28;2.83;;;;;;;26.24;42.26;98962.41;1656962;86;21046;-87
2021/06/09 09:38:28;;;;;;;10.45;3.65;;;;;;;26.35;42.06;98952.94;1667672;85;21007;-87
2021/06/09 09:41:10;;;;;;;5.80;3.40;;;;;;;26.42;38.26;98948.36;1646585;85;21010;-89
2021/06/09 09:43:59;;;;;;;5.08;3.50;;;;;;;26.48;39.63;98949.98;1680703;83;21005;-90
2021/06/09 09:46:38;;;;;;;9.18;3.30;;;;;;;26.59;40.33;98944.49;1669251;83;21027;-90
2021/06/09 09:49:18;;;;;;;4.25;2.92;;;;;;;26.64;40.27;98940.08;1653205;85;21119;-90
2021/06/09 09:51:51;;;;;;;5.83;3.12;;;;;;;26.63;39.16;98946.88;1669477;83;21023;-90
2021/06/09 09:54:31;;;;;;;5.35;2.83;;;;;;;26.77;39.35;98943.25;1669368;83;21059;-90
2021/06/09 09:57:06;;;;;;;4.65;2.65;;;;;;;27.01;39.45;98943.73;1642207;85;21302;-90
2021/06/09 10:02:38;;;;;;;7.30;3.27;;;;;;;27.45;36.72;98946.11;1742628;81;21118;-89
2021/06/09 10:05:12;;;;;;;5.87;2.90;;;;;;;27.61;35.34;98950.79;1752726;78;21015;-90
2021/06/09 10:10:26;;;;;;;4.33;2.80;;;;;;;27.85;34.63;98935.50;1676081;81;21128;-89
2021/06/09 10:13:17;;;;;;;5.80;2.70;;;;;;;28.13;33.72;98940.78;1669629;80;21064;-88
2021/06/09 10:15:50;;;;;;;3.33;2.33;;;;;;;28.39;35.63;98936.80;1663270;82;20992;-91
2021/06/09 10:18:27;;;;;;;6.35;2.70;;;;;;;28.62;35.63;98929.13;1663091;86;21116;-91
2021/06/09 10:20:50;;;;;;;5.45;3.33;;;;;;;28.81;33.60;98923.20;1651473;86;21056;-91
2021/06/09 10:23:39;;;;;;;5.22;3.15;;;;;;;29.00;35.11;98916.28;1659688;86;21004;-89
2021/06/09 10:26:10;;;;;;;4.78;2.92;;;;;;;29.20;34.90;98913.38;1653072;86;21067;-90
2021/06/09 10:29:05;;;;;;;4.17;2.95;;;;;;;29.42;34.93;98917.29;1697441;80;21165;-82
2021/06/09 10:37:58;;;;;;;5.97;2.80;;;;;;;29.88;31.49;98907.86;1674629;79;21224;-92
2021/06/09 10:40:29;;;;;;;4.20;2.60;;;;;;;29.88;33.80;98900.30;1614440;83;21108;-90
2021/06/09 10:42:59;;;;;;;5.37;2.70;;;;;;;29.94;33.73;98907.19;1591746;89;21166;-91
2021/06/09 10:45:29;;;;;;;5.25;2.67;;;;;;;29.96;33.10;98902.15;1602001;82;21104;-93
2021/06/09 10:47:58;;;;;;;4.15;2.45;;;;;;;30.06;33.72;98902.33;1694418;79;21101;-89
2021/06/09 10:50:26;;;;;;;6.53;2.80;;;;;;;29.92;33.22;98908.34;1700019;83;21062;-89
2021/06/09 10:52:54;;;;;;;7.30;3.12;;;;;;;29.92;32.92;98904.32;1700424;83;20991;-91
2021/06/09 10:55:21;;;;;;;7.60;3.30;;;;;;;29.66;31.38;98911.14;1696106;83;21031;-90
2021/06/09 10:57:50;;;;;;;9.90;2.85;;;;;;;29.39;32.26;98905.59;1722437;82;21022;-88
2021/06/09 11:03:34;;;;;;;6.70;2.90;;;;;;;28.89;33.31;98905.89;1716789;80;21080;-92
2021/06/09 11:06:07;;;;;;;7.40;3.20;;;;;;;28.41;32.63;98904.56;1738872;80;21090;-93
2021/06/09 11:08:51;;;;;;;4.55;2.72;;;;;;;28.49;33.32;98915.31;1667644;83;21071;-91
2021/06/09 11:11:23;;;;;;;6.87;3.02;;;;;;;28.38;33.58;98912.92;1682476;83;21079;-90
2021/06/09 11:14:02;;;;;;;9.48;2.90;;;;;;;28.40;32.40;98909.59;1677312;80;21224;-89
2021/06/09 11:16:38;;;;;;;6.37;2.75;;;;;;;28.18;32.56;98910.44;1661191;82;21034;-87
2021/06/09 11:20:00;;;;;;;10.05;3.08;;;;;;;27.99;32.54;98914.11;1583888;89;21079;-91
2021/06/09 11:22:45;;;;;;;8.13;2.80;;;;;;;28.20;33.12;98904.44;1622605;88;21091;-88
2021/06/09 11:25:33;;;;;;;6.78;2.95;;;;;;;28.27;32.61;98890.80;1664034;83;20975;-88
2021/06/09 11:28:20;;;;;;;6.03;3.05;;;;;;;28.18;33.06;98887.72;1674372;83;21033;-89
2021/06/09 11:31:09;;;;;;;6.97;2.70;;;;;;;28.46;32.51;98891.58;1686746;83;21010;-91
2021/06/09 11:34:01;;;;;;;6.33;2.80;;;;;;;28.61;31.73;98886.50;1643049;84;21121;-89
2021/06/09 11:36:33;;;;;;;6.25;2.65;;;;;;;28.63;32.39;98881.35;1694242;82;20941;-90
2021/06/09 11:39:06;;;;;;;6.42;2.65;;;;;;;28.79;32.09;98867.22;1685527;84;21113;-91
2021/06/09 11:41:48;;;;;;;5.53;2.50;;;;;;;28.74;31.35;98867.67;1686145;83;21283;-90
2021/06/09 11:44:42;;;;;;;7.28;2.77;;;;;;;28.85;32.08;98871.06;1678978;81;21161;-90
2021/06/09 11:47:27;;;;;;;7.50;2.90;;;;;;;28.67;32.38;98861.78;1718656;82;21041;-90
2021/06/09 11:50:16;;;;;;;6.47;2.70;;;;;;;28.75;31.01;98860.52;1736049;81;21613;-90
2021/06/09 11:53:13;;;;;;;5.60;2.87;;;;;;;29.02;31.37;98862.09;1708372;82;21042;-90
2021/06/09 11:55:41;;;;;;;5.12;2.58;;;;;;;29.13;31.57;98861.84;1741258;81;21019;-93
2021/06/09 11:58:15;;;;;;;7.05;2.60;;;;;;;29.21;32.37;98854.81;1768981;80;20956;-92
2021/06/09 12:01:06;;;;;;;4.78;2.60;;;;;;;28.67;32.19;98845.27;1746674;80;21001;-91
2021/06/09 12:03:42;;;;;;;5.42;2.25;;;;;;;28.80;33.07;98850.66;1729865;80;20999;-90
2021/06/09 12:06:18;;;;;;;7.92;2.50;;;;;;;28.83;32.83;98847.64;1727716;83;21050;-89
2021/06/09 12:08:48;;;;;;;4.83;2.42;;;;;;;28.69;33.32;98844.60;1746562;82;21098;-89
2021/06/09 12:11:17;;;;;;;7.15;2.27;;;;;;;28.52;33.45;98853.03;1733479;82;21154;-90
2021/06/09 12:13:46;;;;;;;7.00;3.17;;;;;;;28.14;33.05;98857.78;1729262;81;21100;-90
2021/06/09 12:16:21;;;;;;;4.45;2.35;;;;;;;28.01;33.54;98857.86;1738965;80;21008;-91
2021/06/09 12:18:49;;;;;;;7.12;2.62;;;;;;;27.62;32.61;98835.50;1761054;81;21017;-91
2021/06/09 12:21:19;;;;;;;6.05;2.70;;;;;;;27.92;32.23;98861.80;1758049;80;21091;-91
2021/06/09 12:27:05;;;;;;;5.10;2.20;;;;;;;28.30;32.45;98857.56;1703691;82;21155;-91
2021/06/09 12:44:27;;;;;;;3.55;1.52;;;;;;;28.72;29.90;98862.16;1720385;80;21103;-89
2021/06/09 12:47:04;;;;;;;2.95;1.70;;;;;;;28.48;29.63;98867.69;1699762;81;21043;-91
2021/06/09 12:52:56;;;;;;;3.20;2.02;;;;;;;28.39;29.25;98865.13;1722999;81;21091;-91
2021/06/09 12:55:33;;;;;;;5.25;2.12;;;;;;;28.29;29.93;98854.06;1688674;81;21421;-92
2021/06/09 13:07:12;;;;;;;;;;;;;;;28.13;28.17;98848.11;1721466;80;21045;-91
2021/06/09 13:09:39;;;;;;;4.45;2.00;;;;;;;28.17;27.30;98844.59;1728425;81;20069;-91
2021/06/09 13:12:06;;;;;;;5.83;2.50;;;;;;;28.52;27.56;98842.33;1711439;83;21017;-91
2021/06/09 13:14:42;;;;;;;7.55;2.62;;;;;;;28.98;29.77;98853.23;1730420;82;21459;-90
2021/06/09 13:17:09;;;;;;;5.13;2.40;;;;;;;29.24;29.12;98844.63;1729662;81;21044;-91
2021/06/09 13:19:36;;;;;;;6.25;2.22;;;;;;;29.54;29.73;98841.84;1733343;82;21292;-92